To NAV CANADA Home Page Login to a new session Search on AWWS site Feedback and Comments Disclaimer Vers la page française équivalente Tips FAQ What's new on the site To the Forecasts and Observations / NOTAM section To "File a Flight Plan" website Publications and other links Update of the User's profile FIC Telephone Numbers My Weather Data Folder Route Weather Data Regional Weather Data Local Weather Data To the Forecasts and Observations / NOTAM section
Request Generated 04/24/2014 at 20:55:46 UTC . Weather information available at that time is displayed.

METAR/TAF

CLYDE RIVER/NU    (show WxCam)

METAR CYCY 242000Z 17004KT 25SM FEW055 BKN250 M12/M16 A3019 RMK
SC2CS4 SLP228=
METAR CYCY 241900Z 10005KT 25SM SCT060 BKN250 M13/M16 A3019 RMK
SC3CS4 SLP227=
METAR CYCY 241800Z 04004KT 25SM SCT070 BKN250 M13/M17 A3019 RMK
AC3CS4 SLP227=

TAF CYCY 241838Z 2419/2507 VRB03KT P6SM SCT070
RMK NXT FCST BY 250100Z=
Your time UTC time
Weather data provided by Environment Canada and NAV CANADA